createdAt,value
2017-11-09T00:00:12.852Z,0
2017-11-09T00:01:13.430Z,0
2017-11-09T00:02:13.997Z,0
2017-11-09T00:03:14.566Z,0
2017-11-09T00:04:15.136Z,0
2017-11-09T00:05:15.704Z,0
2017-11-09T00:06:16.272Z,0
2017-11-09T00:07:16.840Z,0
2017-11-09T00:08:17.408Z,0
2017-11-09T00:09:17.977Z,0
2017-11-09T00:10:18.549Z,0
2017-11-09T00:11:19.116Z,0
2017-11-09T00:12:19.686Z,0
2017-11-09T00:13:20.256Z,0
2017-11-09T00:14:20.825Z,0
2017-11-09T00:15:21.393Z,0
2017-11-09T00:16:21.968Z,0
2017-11-09T00:17:22.532Z,0
2017-11-09T00:18:23.102Z,0
2017-11-09T00:19:23.670Z,0
2017-11-09T00:20:24.238Z,0
2017-11-09T00:21:24.805Z,0
2017-11-09T00:22:25.373Z,0
2017-11-09T00:23:25.941Z,0
2017-11-09T00:24:26.510Z,0
2017-11-09T00:25:27.078Z,0
2017-11-09T00:26:27.645Z,0
2017-11-09T00:27:28.213Z,0
2017-11-09T00:28:28.781Z,0
2017-11-09T00:29:29.351Z,0
2017-11-09T00:30:29.928Z,0
2017-11-09T00:31:30.498Z,0
2017-11-09T00:32:31.067Z,0
2017-11-09T00:33:31.637Z,0
2017-11-09T00:34:32.205Z,0
2017-11-09T00:35:32.775Z,0
2017-11-09T00:36:33.342Z,0
2017-11-09T00:37:33.911Z,0
2017-11-09T00:38:34.481Z,0
2017-11-09T00:39:35.049Z,0
2017-11-09T00:40:35.620Z,0
2017-11-09T00:41:36.185Z,0
2017-11-09T00:42:36.754Z,0
2017-11-09T00:43:37.323Z,0
2017-11-09T00:44:37.892Z,0
2017-11-09T00:45:38.471Z,0
2017-11-09T00:46:39.043Z,0
2017-11-09T00:47:39.625Z,0
2017-11-09T00:48:40.180Z,0
2017-11-09T00:49:40.748Z,0
2017-11-09T00:50:41.320Z,0
2017-11-09T00:51:41.885Z,0
2017-11-09T00:52:42.453Z,0
2017-11-09T00:53:43.020Z,0
2017-11-09T00:54:43.587Z,0
2017-11-09T00:55:44.160Z,0
2017-11-09T00:56:44.741Z,0
2017-11-09T00:57:45.314Z,0
2017-11-09T00:58:45.885Z,0
2017-11-09T00:59:46.466Z,0
2017-11-09T01:00:47.033Z,0
2017-11-09T01:01:47.603Z,0
2017-11-09T01:02:48.182Z,0
2017-11-09T01:03:48.752Z,0
2017-11-09T01:04:49.321Z,0
2017-11-09T01:05:49.890Z,0
2017-11-09T01:06:50.460Z,0
2017-11-09T01:07:51.030Z,0
2017-11-09T01:08:51.597Z,0
2017-11-09T01:09:52.177Z,0
2017-11-09T01:10:52.744Z,0
2017-11-09T01:11:53.312Z,0
2017-11-09T01:12:53.879Z,0
2017-11-09T01:13:54.448Z,0
2017-11-09T01:14:55.016Z,0
2017-11-09T01:15:55.585Z,0
2017-11-09T01:16:56.153Z,0
2017-11-09T01:17:56.733Z,0
2017-11-09T01:18:57.303Z,0
2017-11-09T01:19:57.871Z,0
2017-11-09T01:20:58.441Z,0
2017-11-09T01:21:59.007Z,0
2017-11-09T01:22:59.575Z,0
2017-11-09T01:24:00.144Z,0
2017-11-09T01:25:00.711Z,0
2017-11-09T01:26:01.304Z,0
2017-11-09T01:27:01.859Z,0
2017-11-09T01:28:02.429Z,0
2017-11-09T01:29:02.999Z,0
2017-11-09T01:30:03.576Z,0
2017-11-09T01:31:04.146Z,0
2017-11-09T01:32:04.714Z,0
2017-11-09T01:33:05.280Z,0
2017-11-09T01:34:05.860Z,0
2017-11-09T01:35:06.434Z,0
2017-11-09T01:36:06.997Z,0
2017-11-09T01:37:07.566Z,0
2017-11-09T01:38:08.136Z,0
2017-11-09T01:39:08.705Z,0
2017-11-09T01:40:09.273Z,0
2017-11-09T01:41:09.840Z,0
2017-11-09T01:42:10.408Z,0
2017-11-09T01:43:10.976Z,0
2017-11-09T01:44:11.545Z,0
2017-11-09T01:45:12.118Z,0
2017-11-09T01:46:12.709Z,0
2017-11-09T01:47:13.263Z,0
2017-11-09T01:48:13.838Z,0
2017-11-09T01:49:14.402Z,0
2017-11-09T01:50:14.970Z,0
2017-11-09T01:51:15.538Z,0
2017-11-09T01:52:16.107Z,0
2017-11-09T01:53:16.674Z,0
2017-11-09T01:54:17.245Z,0
2017-11-09T01:55:17.814Z,0
2017-11-09T01:56:18.383Z,0
2017-11-09T01:57:18.950Z,0
2017-11-09T01:58:19.518Z,0
2017-11-09T01:59:20.086Z,0
2017-11-09T02:00:20.653Z,0
2017-11-09T02:01:21.223Z,0
2017-11-09T02:02:21.789Z,0
2017-11-09T02:03:22.357Z,0
2017-11-09T02:04:22.925Z,0
2017-11-09T02:05:23.493Z,0
2017-11-09T02:06:24.073Z,0
2017-11-09T02:07:24.642Z,0
2017-11-09T02:08:25.210Z,0
2017-11-09T02:09:25.785Z,0
2017-11-09T02:10:26.548Z,0
2017-11-09T02:11:27.118Z,0
2017-11-09T02:12:27.685Z,0
2017-11-09T02:13:28.254Z,0
2017-11-09T02:14:28.823Z,0
2017-11-09T02:15:29.393Z,0
2017-11-09T02:16:29.961Z,0
2017-11-09T02:17:30.534Z,0
2017-11-09T02:18:31.100Z,0
2017-11-09T02:19:31.680Z,0
2017-11-09T02:20:32.448Z,0
2017-11-09T02:21:33.020Z,0
2017-11-09T02:22:33.589Z,0
2017-11-09T02:23:34.157Z,0
2017-11-09T02:24:34.725Z,0
2017-11-09T02:25:35.301Z,0
2017-11-09T02:26:35.863Z,0
2017-11-09T02:27:36.432Z,0
2017-11-09T02:28:37.012Z,0
2017-11-09T02:29:37.582Z,0
2017-11-09T02:30:38.151Z,0
2017-11-09T02:31:38.720Z,0
2017-11-09T02:32:39.288Z,0
2017-11-09T02:33:39.866Z,0
2017-11-09T02:34:40.436Z,0
2017-11-09T02:35:41.060Z,0
2017-11-09T02:36:41.628Z,0
2017-11-09T02:37:42.204Z,0
2017-11-09T02:38:42.764Z,0
2017-11-09T02:39:43.332Z,0
2017-11-09T02:40:43.899Z,0
2017-11-09T02:41:44.468Z,0
2017-11-09T02:42:45.036Z,0
2017-11-09T02:43:45.604Z,0
2017-11-09T02:44:46.170Z,0
2017-11-09T02:45:46.738Z,0
2017-11-09T02:46:47.306Z,0
2017-11-09T02:47:47.878Z,0
2017-11-09T02:48:48.445Z,0
2017-11-09T02:49:49.015Z,0
2017-11-09T02:50:49.586Z,0
2017-11-09T02:51:50.155Z,0
2017-11-09T02:52:50.727Z,0
2017-11-09T02:53:51.300Z,0
2017-11-09T02:54:51.862Z,0
2017-11-09T02:55:52.431Z,0
2017-11-09T02:56:52.998Z,0
2017-11-09T02:57:53.579Z,0
2017-11-09T02:58:54.149Z,0
2017-11-09T02:59:54.718Z,0
2017-11-09T03:00:55.286Z,0
2017-11-09T03:01:55.867Z,0
2017-11-09T03:02:56.435Z,0
2017-11-09T03:03:57.003Z,0
2017-11-09T03:04:57.590Z,0
2017-11-09T03:05:58.162Z,0
2017-11-09T03:06:58.731Z,0
2017-11-09T03:07:59.302Z,0
2017-11-09T03:08:59.881Z,0
2017-11-09T03:10:00.440Z,0
2017-11-09T03:11:01.007Z,0
2017-11-09T03:12:01.580Z,0
2017-11-09T03:13:02.151Z,0
2017-11-09T03:14:02.730Z,0
2017-11-09T03:15:03.298Z,0
2017-11-09T03:16:03.867Z,0
2017-11-09T03:17:04.434Z,0
2017-11-09T03:18:05.003Z,0
2017-11-09T03:19:05.572Z,0
2017-11-09T03:20:06.139Z,0
2017-11-09T03:21:06.709Z,0
2017-11-09T03:22:07.285Z,0
2017-11-09T03:23:07.854Z,0
2017-11-09T03:24:08.425Z,0
2017-11-09T03:25:08.995Z,0
2017-11-09T03:26:09.562Z,0
2017-11-09T03:27:10.130Z,0
2017-11-09T03:28:10.710Z,0
2017-11-09T03:29:11.279Z,0
2017-11-09T03:30:11.900Z,0
2017-11-09T03:31:12.476Z,0
2017-11-09T03:32:13.036Z,0
2017-11-09T03:33:13.602Z,0
2017-11-09T03:34:14.170Z,0
2017-11-09T03:35:14.737Z,0
2017-11-09T03:36:15.317Z,0
2017-11-09T03:37:15.890Z,0
2017-11-09T03:38:16.465Z,0
2017-11-09T03:39:17.033Z,0
2017-11-09T03:40:17.601Z,0
2017-11-09T03:41:18.181Z,0
2017-11-09T03:42:18.748Z,0
2017-11-09T03:43:19.326Z,0
2017-11-09T03:44:19.894Z,0
2017-11-09T03:45:20.462Z,0
2017-11-09T03:46:21.030Z,0
2017-11-09T03:47:21.597Z,0
2017-11-09T03:48:22.172Z,0
2017-11-09T03:49:22.736Z,0
2017-11-09T03:50:23.306Z,0
2017-11-09T03:51:23.876Z,0
2017-11-09T03:52:24.446Z,0
2017-11-09T03:53:25.013Z,0
2017-11-09T03:54:25.586Z,0
2017-11-09T03:55:26.151Z,0
2017-11-09T03:56:26.722Z,0
2017-11-09T03:57:27.292Z,0
2017-11-09T03:58:27.857Z,0
2017-11-09T03:59:28.426Z,0
2017-11-09T04:00:28.993Z,0
2017-11-09T04:01:29.577Z,0
2017-11-09T04:02:30.133Z,0
2017-11-09T04:03:30.698Z,0
2017-11-09T04:04:31.266Z,0
2017-11-09T04:05:31.833Z,0
2017-11-09T04:06:32.402Z,0
2017-11-09T04:07:32.971Z,0
2017-11-09T04:08:33.554Z,0
2017-11-09T04:09:34.120Z,0
2017-11-09T04:10:34.687Z,0
2017-11-09T04:11:35.262Z,0
2017-11-09T04:12:35.835Z,0
2017-11-09T04:13:36.405Z,0
2017-11-09T04:14:36.976Z,0
2017-11-09T04:15:37.544Z,0
2017-11-09T04:16:38.114Z,0
2017-11-09T04:17:38.682Z,0
2017-11-09T04:18:39.250Z,0
2017-11-09T04:19:39.817Z,0
2017-11-09T04:20:40.387Z,0
2017-11-09T04:21:40.956Z,0
2017-11-09T04:22:41.523Z,0
2017-11-09T04:23:42.091Z,0
2017-11-09T04:24:42.658Z,0
2017-11-09T04:25:43.225Z,0
2017-11-09T04:26:43.793Z,0
2017-11-09T04:27:44.361Z,0
2017-11-09T04:28:44.929Z,0
2017-11-09T04:29:45.498Z,0
2017-11-09T04:30:46.078Z,0
2017-11-09T04:31:46.647Z,0
2017-11-09T04:32:47.225Z,0
2017-11-09T04:33:47.797Z,0
2017-11-09T04:34:48.366Z,0
2017-11-09T04:35:48.937Z,0
2017-11-09T04:36:49.515Z,0
2017-11-09T04:37:50.082Z,0
2017-11-09T04:38:50.652Z,0
2017-11-09T04:39:51.219Z,0
2017-11-09T04:40:51.787Z,0
2017-11-09T04:41:52.355Z,0
2017-11-09T04:42:52.924Z,0
2017-11-09T04:43:53.495Z,0
2017-11-09T04:44:54.064Z,0
2017-11-09T04:45:54.634Z,0
2017-11-09T04:46:55.202Z,0
2017-11-09T04:47:55.772Z,0
2017-11-09T04:48:56.341Z,0
2017-11-09T04:49:56.911Z,0
2017-11-09T04:50:57.479Z,0
2017-11-09T04:51:58.048Z,0
2017-11-09T04:52:58.617Z,0
2017-11-09T04:53:59.186Z,0
2017-11-09T04:54:59.754Z,0
2017-11-09T04:56:00.322Z,0
2017-11-09T04:57:00.889Z,0
2017-11-09T04:58:01.457Z,0
2017-11-09T04:59:02.028Z,0
2017-11-09T05:00:02.593Z,0
2017-11-09T05:01:03.165Z,0
2017-11-09T05:02:03.748Z,0
2017-11-09T05:03:04.313Z,0
2017-11-09T05:04:04.884Z,0
2017-11-09T05:05:05.460Z,0
2017-11-09T05:06:06.030Z,0
2017-11-09T05:07:06.600Z,0
2017-11-09T05:08:07.170Z,0
2017-11-09T05:09:07.739Z,0
2017-11-09T05:10:08.309Z,0
2017-11-09T05:11:08.877Z,0
2017-11-09T05:12:09.446Z,0
2017-11-09T05:13:10.014Z,0
2017-11-09T05:14:10.596Z,0
2017-11-09T05:15:11.170Z,0
2017-11-09T05:16:11.734Z,0
2017-11-09T05:17:12.313Z,0
2017-11-09T05:18:12.885Z,0
2017-11-09T05:19:13.466Z,0
2017-11-09T05:20:14.046Z,0
2017-11-09T05:21:14.616Z,0
2017-11-09T05:22:15.186Z,0
2017-11-09T05:23:15.807Z,0
2017-11-09T05:24:16.375Z,0
2017-11-09T05:25:16.943Z,0
2017-11-09T05:26:17.522Z,0
2017-11-09T05:27:18.092Z,0
2017-11-09T05:28:18.662Z,0
2017-11-09T05:29:19.234Z,0
2017-11-09T05:30:19.802Z,0
2017-11-09T05:31:20.369Z,0
2017-11-09T05:32:20.950Z,0
2017-11-09T05:33:21.520Z,0
2017-11-09T05:34:22.099Z,0
2017-11-09T05:35:22.667Z,0
2017-11-09T05:36:23.235Z,0
2017-11-09T05:37:23.804Z,0
2017-11-09T05:38:24.384Z,0
2017-11-09T05:39:24.951Z,0
2017-11-09T05:40:25.521Z,0
2017-11-09T05:41:26.091Z,0
2017-11-09T05:42:26.660Z,0
2017-11-09T05:43:27.228Z,0
2017-11-09T05:44:27.806Z,0
2017-11-09T05:45:28.369Z,0
2017-11-09T05:46:28.935Z,0
2017-11-09T05:47:29.515Z,0
2017-11-09T05:48:30.083Z,0
2017-11-09T05:49:30.654Z,0
2017-11-09T05:50:31.222Z,0
2017-11-09T05:51:31.793Z,0
2017-11-09T05:52:32.370Z,0
2017-11-09T05:53:32.940Z,0
2017-11-09T05:54:33.510Z,0
2017-11-09T05:55:34.077Z,0
2017-11-09T05:56:34.648Z,0
2017-11-09T05:57:35.220Z,0
2017-11-09T05:58:35.795Z,0
2017-11-09T05:59:36.366Z,0
2017-11-09T06:00:36.942Z,0
2017-11-09T06:01:37.503Z,0
2017-11-09T06:02:38.074Z,0
2017-11-09T06:03:38.645Z,0
2017-11-09T06:04:39.214Z,0
2017-11-09T06:05:39.782Z,0
2017-11-09T06:06:40.349Z,0
2017-11-09T06:07:40.922Z,0
2017-11-09T06:08:41.499Z,0
2017-11-09T06:09:42.069Z,0
2017-11-09T06:10:42.640Z,0
2017-11-09T06:11:43.208Z,0
2017-11-09T06:12:43.780Z,0
2017-11-09T06:13:44.356Z,0
2017-11-09T06:14:44.924Z,0
2017-11-09T06:15:45.494Z,0
2017-11-09T06:16:46.063Z,0
2017-11-09T06:17:46.642Z,0
2017-11-09T06:18:47.214Z,0
2017-11-09T06:19:47.783Z,0
2017-11-09T06:20:48.362Z,0
2017-11-09T06:21:48.923Z,0
2017-11-09T06:22:49.493Z,0
2017-11-09T06:23:50.062Z,0
2017-11-09T06:24:50.631Z,0
2017-11-09T06:25:51.200Z,0
2017-11-09T06:26:51.768Z,0
2017-11-09T06:27:52.349Z,0
2017-11-09T06:28:52.919Z,0
2017-11-09T06:29:53.497Z,0
2017-11-09T06:30:54.067Z,0
2017-11-09T06:31:54.650Z,4
2017-11-09T06:32:55.217Z,4
2017-11-09T06:33:55.785Z,0
2017-11-09T06:34:56.355Z,0
2017-11-09T06:35:56.922Z,0
2017-11-09T06:36:57.493Z,4
2017-11-09T06:37:58.061Z,4
2017-11-09T06:38:58.630Z,4
2017-11-09T06:39:59.202Z,4
2017-11-09T06:40:59.766Z,0
2017-11-09T06:42:00.335Z,0
2017-11-09T06:43:00.904Z,0
2017-11-09T06:44:01.472Z,4
2017-11-09T06:45:02.040Z,4
2017-11-09T06:46:02.610Z,4
2017-11-09T06:47:03.179Z,4
2017-11-09T06:48:03.749Z,4
2017-11-09T06:49:04.317Z,4
2017-11-09T06:50:04.888Z,4
2017-11-09T06:51:05.456Z,4
2017-11-09T06:52:06.031Z,4
2017-11-09T06:53:06.594Z,4
2017-11-09T06:54:07.163Z,4
2017-11-09T06:55:07.731Z,4
2017-11-09T06:56:08.298Z,4
2017-11-09T06:57:08.872Z,4
2017-11-09T06:58:09.434Z,4
2017-11-09T06:59:10.009Z,8
2017-11-09T07:00:10.570Z,8
2017-11-09T07:01:11.139Z,8
2017-11-09T07:02:11.708Z,4
2017-11-09T07:03:12.277Z,8
2017-11-09T07:04:12.845Z,8
2017-11-09T07:05:13.413Z,8
2017-11-09T07:06:13.991Z,8
2017-11-09T07:07:14.561Z,8
2017-11-09T07:08:15.131Z,12
2017-11-09T07:09:15.700Z,12
2017-11-09T07:10:16.292Z,8
2017-11-09T07:11:16.863Z,12
2017-11-09T07:12:17.422Z,12
2017-11-09T07:13:17.997Z,12
2017-11-09T07:14:18.566Z,12
2017-11-09T07:15:19.127Z,16
2017-11-09T07:16:19.700Z,20
2017-11-09T07:17:20.264Z,20
2017-11-09T07:18:20.835Z,24
2017-11-09T07:19:21.402Z,20
2017-11-09T07:20:21.972Z,20
2017-11-09T07:21:22.542Z,20
2017-11-09T07:22:23.112Z,24
2017-11-09T07:23:23.683Z,24
2017-11-09T07:24:24.262Z,28
2017-11-09T07:25:24.832Z,28
2017-11-09T07:26:25.403Z,28
2017-11-09T07:27:25.974Z,32
2017-11-09T07:28:26.545Z,28
2017-11-09T07:29:27.118Z,36
2017-11-09T07:30:27.696Z,36
2017-11-09T07:31:28.266Z,36
2017-11-09T07:32:28.835Z,36
2017-11-09T07:33:29.406Z,40
2017-11-09T07:34:29.973Z,40
2017-11-09T07:35:30.542Z,44
2017-11-09T07:36:31.112Z,44
2017-11-09T07:37:31.680Z,44
2017-11-09T07:38:32.250Z,44
2017-11-09T07:39:32.820Z,44
2017-11-09T07:40:33.401Z,48
2017-11-09T07:41:33.971Z,52
2017-11-09T07:42:34.538Z,60
2017-11-09T07:43:35.115Z,60
2017-11-09T07:44:35.681Z,68
2017-11-09T07:45:36.244Z,64
2017-11-09T07:46:36.814Z,64
2017-11-09T07:47:37.386Z,68
2017-11-09T07:48:37.966Z,60
2017-11-09T07:49:38.535Z,60
2017-11-09T07:50:39.104Z,56
2017-11-09T07:51:39.685Z,60
2017-11-09T07:52:40.254Z,60
2017-11-09T07:53:40.823Z,64
2017-11-09T07:54:41.393Z,68
2017-11-09T07:55:41.963Z,64
2017-11-09T07:56:42.533Z,68
2017-11-09T07:57:43.104Z,56
2017-11-09T07:58:43.673Z,52
2017-11-09T07:59:44.262Z,56
2017-11-09T08:00:44.813Z,56
2017-11-09T08:01:45.383Z,52
2017-11-09T08:02:45.952Z,44
2017-11-09T08:03:46.526Z,40
2017-11-09T08:04:47.091Z,40
2017-11-09T08:05:47.659Z,40
2017-11-09T08:06:48.228Z,44
2017-11-09T08:07:48.798Z,48
2017-11-09T08:08:49.369Z,56
2017-11-09T08:09:49.938Z,56
2017-11-09T08:10:50.508Z,48
2017-11-09T08:11:51.078Z,44
2017-11-09T08:12:51.648Z,44
2017-11-09T08:13:52.216Z,44
2017-11-09T08:14:52.786Z,40
2017-11-09T08:15:53.355Z,44
2017-11-09T08:16:53.924Z,48
2017-11-09T08:17:54.501Z,48
2017-11-09T08:18:55.071Z,52
2017-11-09T08:19:55.640Z,56
2017-11-09T08:20:56.207Z,56
2017-11-09T08:21:56.776Z,60
2017-11-09T08:22:57.357Z,60
2017-11-09T08:23:57.950Z,68
2017-11-09T08:24:58.497Z,92
2017-11-09T08:25:59.068Z,112
2017-11-09T08:26:59.639Z,128
2017-11-09T08:28:00.209Z,140
2017-11-09T08:29:00.780Z,140
2017-11-09T08:30:01.352Z,160
2017-11-09T08:31:01.920Z,168
2017-11-09T08:32:02.491Z,184
2017-11-09T08:33:03.067Z,200
2017-11-09T08:34:03.630Z,224
2017-11-09T08:35:04.202Z,256
2017-11-09T08:36:04.774Z,280
2017-11-09T08:37:05.346Z,304
2017-11-09T08:38:05.918Z,316
2017-11-09T08:39:06.488Z,336
2017-11-09T08:40:07.060Z,352
2017-11-09T08:41:07.642Z,372
2017-11-09T08:42:08.215Z,392
2017-11-09T08:43:08.786Z,400
2017-11-09T08:44:09.357Z,408
2017-11-09T08:45:09.931Z,424
2017-11-09T08:46:10.503Z,428
2017-11-09T08:47:11.075Z,436
2017-11-09T08:48:11.657Z,436
2017-11-09T08:49:12.227Z,428
2017-11-09T08:50:12.799Z,436
2017-11-09T08:51:13.369Z,432
2017-11-09T08:52:13.952Z,420
2017-11-09T08:53:14.523Z,424
2017-11-09T08:54:15.097Z,428
2017-11-09T08:55:15.669Z,428
2017-11-09T08:56:16.240Z,436
2017-11-09T08:57:16.812Z,436
2017-11-09T08:58:17.382Z,456
2017-11-09T08:59:17.955Z,452
2017-11-09T09:00:18.530Z,444
2017-11-09T09:01:19.100Z,448
2017-11-09T09:02:19.671Z,456
2017-11-09T09:03:20.254Z,464
2017-11-09T09:04:20.888Z,468
2017-11-09T09:05:21.458Z,468
2017-11-09T09:06:22.029Z,468
2017-11-09T09:07:22.602Z,456
2017-11-09T09:08:23.174Z,456
2017-11-09T09:09:23.746Z,456
2017-11-09T09:10:24.320Z,436
2017-11-09T09:11:24.889Z,428
2017-11-09T09:12:25.460Z,420
2017-11-09T09:13:26.033Z,416
2017-11-09T09:14:26.603Z,412
2017-11-09T09:15:27.187Z,400
2017-11-09T09:16:27.769Z,404
2017-11-09T09:17:28.320Z,404
2017-11-09T09:18:28.891Z,412
2017-11-09T09:19:29.463Z,416
2017-11-09T09:20:30.036Z,420
2017-11-09T09:21:30.609Z,420
2017-11-09T09:22:31.190Z,416
2017-11-09T09:23:31.763Z,412
2017-11-09T09:24:32.332Z,416
2017-11-09T09:25:32.905Z,412
2017-11-09T09:26:33.479Z,396
2017-11-09T09:27:34.050Z,384
2017-11-09T09:28:34.623Z,368
2017-11-09T09:29:35.195Z,364
2017-11-09T09:30:35.786Z,352
2017-11-09T09:31:36.351Z,336
2017-11-09T09:32:36.934Z,336
2017-11-09T09:33:37.518Z,332
2017-11-09T09:34:38.090Z,320
2017-11-09T09:35:38.679Z,308
2017-11-09T09:36:39.247Z,300
2017-11-09T09:37:39.831Z,284
2017-11-09T09:38:40.388Z,276
2017-11-09T09:39:40.961Z,272
2017-11-09T09:40:41.533Z,264
2017-11-09T09:41:42.106Z,256
2017-11-09T09:42:42.677Z,244
2017-11-09T09:43:43.248Z,208
2017-11-09T09:44:43.819Z,192
2017-11-09T09:45:44.391Z,180
2017-11-09T09:46:44.962Z,192
2017-11-09T09:47:45.533Z,204
2017-11-09T09:48:46.117Z,216
2017-11-09T09:49:46.689Z,224
2017-11-09T09:50:47.263Z,212
2017-11-09T09:51:47.841Z,208
2017-11-09T09:52:48.414Z,212
2017-11-09T09:53:48.992Z,216
2017-11-09T09:54:49.557Z,224
2017-11-09T09:55:50.128Z,240
2017-11-09T09:56:50.699Z,240
2017-11-09T09:57:51.271Z,244
2017-11-09T09:58:51.842Z,248
2017-11-09T09:59:52.416Z,240
2017-11-09T10:00:52.999Z,232
2017-11-09T10:01:53.569Z,236
2017-11-09T10:02:54.144Z,240
2017-11-09T10:03:54.725Z,236
2017-11-09T10:04:55.296Z,236
2017-11-09T10:05:55.867Z,240
2017-11-09T10:06:56.438Z,244
2017-11-09T10:07:57.010Z,240
2017-11-09T10:08:57.593Z,232
2017-11-09T10:09:58.162Z,228
2017-11-09T10:10:58.734Z,248
2017-11-09T10:11:59.308Z,276
2017-11-09T10:12:59.881Z,296
2017-11-09T10:14:00.454Z,352
2017-11-09T10:15:01.025Z,356
2017-11-09T10:16:01.597Z,380
2017-11-09T10:17:02.170Z,396
2017-11-09T10:18:02.740Z,396
2017-11-09T10:19:03.311Z,444
2017-11-09T10:20:03.883Z,468
2017-11-09T10:21:04.455Z,508
2017-11-09T10:22:05.029Z,536
2017-11-09T10:23:05.611Z,536
2017-11-09T10:24:06.195Z,532
2017-11-09T10:25:06.767Z,548
2017-11-09T10:26:07.341Z,496
2017-11-09T10:27:07.925Z,504
2017-11-09T10:28:08.486Z,532
2017-11-09T10:29:09.061Z,576
2017-11-09T10:30:09.636Z,608
2017-11-09T10:31:10.212Z,596
2017-11-09T10:32:10.783Z,608
2017-11-09T10:33:11.368Z,596
2017-11-09T10:34:11.940Z,588
2017-11-09T10:35:12.511Z,612
2017-11-09T10:36:13.082Z,648
2017-11-09T10:37:13.655Z,664
2017-11-09T10:38:14.228Z,680
2017-11-09T10:39:14.797Z,692
2017-11-09T10:40:15.371Z,680
2017-11-09T10:41:15.955Z,656
2017-11-09T10:42:16.527Z,636
2017-11-09T10:43:17.098Z,620
2017-11-09T10:44:17.672Z,576
2017-11-09T10:45:18.250Z,584
2017-11-09T10:46:18.817Z,492
2017-11-09T10:47:19.388Z,476
2017-11-09T10:48:19.960Z,528
2017-11-09T10:49:20.540Z,540
2017-11-09T10:50:21.107Z,528
2017-11-09T10:51:21.691Z,464
2017-11-09T10:52:22.263Z,476
2017-11-09T10:53:22.835Z,452
2017-11-09T10:54:23.413Z,412
2017-11-09T10:55:23.978Z,408
2017-11-09T10:56:24.551Z,404
2017-11-09T10:57:25.125Z,360
2017-11-09T10:58:25.697Z,308
2017-11-09T10:59:26.270Z,268
2017-11-09T11:00:26.841Z,260
2017-11-09T11:01:27.414Z,252
2017-11-09T11:02:27.986Z,256
2017-11-09T11:03:28.559Z,284
2017-11-09T11:04:29.143Z,296
2017-11-09T11:05:29.715Z,276
2017-11-09T11:06:30.288Z,288
2017-11-09T11:07:30.859Z,328
2017-11-09T11:08:31.431Z,380
2017-11-09T11:09:32.004Z,392
2017-11-09T11:10:32.575Z,408
2017-11-09T11:11:33.148Z,408
2017-11-09T11:12:33.719Z,436
2017-11-09T11:13:34.292Z,496
2017-11-09T11:14:34.906Z,500
2017-11-09T11:15:35.437Z,544
2017-11-09T11:16:36.022Z,596
2017-11-09T11:17:36.596Z,588
2017-11-09T11:18:37.166Z,636
2017-11-09T11:19:37.753Z,688
2017-11-09T11:20:38.324Z,692
2017-11-09T11:21:38.894Z,704
2017-11-09T11:22:39.466Z,692
2017-11-09T11:23:40.039Z,668
2017-11-09T11:24:40.612Z,628
2017-11-09T11:25:41.184Z,672
2017-11-09T11:26:41.754Z,672
2017-11-09T11:27:42.326Z,668
2017-11-09T11:28:42.901Z,684
2017-11-09T11:29:43.471Z,648
2017-11-09T11:30:44.043Z,688
2017-11-09T11:31:44.615Z,632
2017-11-09T11:32:45.186Z,636
2017-11-09T11:33:45.766Z,612
2017-11-09T11:34:46.344Z,588
2017-11-09T11:35:46.915Z,544
2017-11-09T11:36:47.490Z,556
2017-11-09T11:37:48.060Z,572
2017-11-09T11:38:48.633Z,596
2017-11-09T11:39:49.205Z,560
2017-11-09T11:40:49.777Z,544
2017-11-09T11:41:50.351Z,528
2017-11-09T11:42:50.921Z,548
2017-11-09T11:43:51.494Z,552
2017-11-09T11:44:52.069Z,560
2017-11-09T11:45:52.649Z,584
2017-11-09T11:46:53.234Z,608
2017-11-09T11:47:53.791Z,628
2017-11-09T11:48:54.365Z,656
2017-11-09T11:49:54.937Z,616
2017-11-09T11:50:55.610Z,524
2017-11-09T11:51:56.183Z,472
2017-11-09T11:52:56.754Z,404
2017-11-09T11:53:57.326Z,396
2017-11-09T11:54:57.898Z,352
2017-11-09T11:55:58.472Z,332
2017-11-09T11:56:59.054Z,324
2017-11-09T11:57:59.625Z,312
2017-11-09T11:59:00.201Z,308
2017-11-09T12:00:00.772Z,316
2017-11-09T12:01:01.354Z,336
2017-11-09T12:02:01.928Z,364
2017-11-09T12:03:02.511Z,380
2017-11-09T12:04:03.088Z,408
2017-11-09T12:05:03.667Z,464
2017-11-09T12:06:04.249Z,508
2017-11-09T12:07:04.823Z,492
2017-11-09T12:08:05.396Z,480
2017-11-09T12:09:05.968Z,420
2017-11-09T12:10:06.540Z,416
2017-11-09T12:11:07.111Z,460
2017-11-09T12:12:07.684Z,432
2017-11-09T12:13:08.257Z,392
2017-11-09T12:14:08.830Z,352
2017-11-09T12:15:09.401Z,360
2017-11-09T12:16:09.979Z,344
2017-11-09T12:17:10.563Z,408
2017-11-09T12:18:11.126Z,432
2017-11-09T12:19:11.710Z,476
2017-11-09T12:20:12.293Z,496
2017-11-09T12:21:12.866Z,508
2017-11-09T12:22:13.438Z,528
2017-11-09T12:23:14.010Z,512
2017-11-09T12:24:14.583Z,500
2017-11-09T12:25:15.154Z,524
2017-11-09T12:26:15.729Z,484
2017-11-09T12:27:16.300Z,440
2017-11-09T12:28:16.875Z,444
2017-11-09T12:29:17.447Z,404
2017-11-09T12:30:18.019Z,352
2017-11-09T12:31:18.591Z,316
2017-11-09T12:32:19.164Z,320
2017-11-09T12:33:19.737Z,348
2017-11-09T12:34:20.309Z,400
2017-11-09T12:35:20.885Z,432
2017-11-09T12:36:21.451Z,368
2017-11-09T12:37:22.037Z,312
2017-11-09T12:38:22.608Z,272
2017-11-09T12:39:23.180Z,248
2017-11-09T12:40:23.754Z,256
2017-11-09T12:41:24.338Z,304
2017-11-09T12:42:24.911Z,348
2017-11-09T12:43:25.482Z,348
2017-11-09T12:44:26.054Z,348
2017-11-09T12:45:26.630Z,352
2017-11-09T12:46:27.198Z,360
2017-11-09T12:47:27.770Z,348
2017-11-09T12:48:28.355Z,312
2017-11-09T12:49:28.915Z,332
2017-11-09T12:50:29.487Z,388
2017-11-09T12:51:30.057Z,368
2017-11-09T12:52:30.629Z,336
2017-11-09T12:53:31.203Z,320
2017-11-09T12:54:31.774Z,300
2017-11-09T12:55:32.345Z,288
2017-11-09T12:56:32.929Z,272
2017-11-09T12:57:33.493Z,280
2017-11-09T12:58:34.070Z,288
2017-11-09T12:59:34.642Z,292
2017-11-09T13:00:35.213Z,292
2017-11-09T13:01:35.887Z,296
2017-11-09T13:02:36.460Z,292
2017-11-09T13:03:37.032Z,336
2017-11-09T13:04:37.607Z,380
2017-11-09T13:05:38.173Z,400
2017-11-09T13:06:38.746Z,392
2017-11-09T13:07:39.319Z,388
2017-11-09T13:08:39.890Z,392
2017-11-09T13:09:40.462Z,372
2017-11-09T13:10:41.034Z,384
2017-11-09T13:11:41.606Z,380
2017-11-09T13:12:42.181Z,376
2017-11-09T13:13:42.763Z,396
2017-11-09T13:14:43.342Z,380
2017-11-09T13:15:43.914Z,352
2017-11-09T13:16:44.481Z,360
2017-11-09T13:17:45.051Z,380
2017-11-09T13:18:45.622Z,376
2017-11-09T13:19:46.206Z,376
2017-11-09T13:20:46.788Z,380
2017-11-09T13:21:47.362Z,408
2017-11-09T13:22:47.933Z,412
2017-11-09T13:23:48.505Z,420
2017-11-09T13:24:49.079Z,452
2017-11-09T13:25:49.650Z,464
2017-11-09T13:26:50.221Z,484
2017-11-09T13:27:50.793Z,508
2017-11-09T13:28:51.363Z,516
2017-11-09T13:29:51.945Z,460
2017-11-09T13:30:52.509Z,476
2017-11-09T13:31:53.081Z,476
2017-11-09T13:32:53.651Z,460
2017-11-09T13:33:54.224Z,456
2017-11-09T13:34:54.799Z,472
2017-11-09T13:35:55.370Z,456
2017-11-09T13:36:55.942Z,460
2017-11-09T13:37:56.513Z,460
2017-11-09T13:38:57.086Z,464
2017-11-09T13:39:57.659Z,476
2017-11-09T13:40:58.230Z,484
2017-11-09T13:41:58.815Z,480
2017-11-09T13:42:59.392Z,496
2017-11-09T13:43:59.970Z,512
2017-11-09T13:45:00.546Z,508
2017-11-09T13:46:01.122Z,516
2017-11-09T13:47:01.683Z,504
2017-11-09T13:48:02.258Z,504
2017-11-09T13:49:02.838Z,520
2017-11-09T13:50:03.408Z,516
2017-11-09T13:51:03.981Z,504
2017-11-09T13:52:04.554Z,492
2017-11-09T13:53:05.125Z,456
2017-11-09T13:54:05.697Z,444
2017-11-09T13:55:06.268Z,444
2017-11-09T13:56:06.839Z,428
2017-11-09T13:57:07.412Z,440
2017-11-09T13:58:07.984Z,444
2017-11-09T13:59:08.557Z,436
2017-11-09T14:00:09.128Z,448
2017-11-09T14:01:09.701Z,436
2017-11-09T14:02:10.274Z,412
2017-11-09T14:03:10.866Z,388
2017-11-09T14:04:11.429Z,340
2017-11-09T14:05:12.003Z,316
2017-11-09T14:06:12.576Z,312
2017-11-09T14:07:13.156Z,336
2017-11-09T14:08:13.731Z,320
2017-11-09T14:09:14.303Z,304
2017-11-09T14:10:14.874Z,276
2017-11-09T14:11:15.445Z,236
2017-11-09T14:12:16.028Z,208
2017-11-09T14:13:16.599Z,204
2017-11-09T14:14:17.171Z,176
2017-11-09T14:15:17.742Z,164
2017-11-09T14:16:18.314Z,160
2017-11-09T14:17:18.884Z,148
2017-11-09T14:18:19.456Z,148
2017-11-09T14:19:20.048Z,160
2017-11-09T14:20:20.609Z,188
2017-11-09T14:21:21.180Z,200
2017-11-09T14:22:21.752Z,208
2017-11-09T14:23:22.332Z,212
2017-11-09T14:24:22.901Z,212
2017-11-09T14:25:23.472Z,208